Pindi Bhattian Weather



Pindi Bhattian's Current Weather

Temprature 26.21o clear sky

clear sky

Rain: 0 %

Min Temprature26.21o
Max Temprature26.21o
Humidity71
Wind Speed2.91 m/h
Sun Rise05:57:17
Sun Set17:59:26
Current Time: 26-Sep-2022 09:03:31
Lat/Lon: 31.8978, 73.273




Pindi Bhattian's Geo Location



Pindi Bhattian's Weather Forecast

Time Overall Temp Min Temp Max Temp Humidity Wind Speed Rain
26-Sep-2022 (Mon)
11:00:00 clear sky 25.990 25.990 30.400 71 3.17 m/h 0 %
14:00:00 clear sky 30.220 30.220 33.430 53 2.78 m/h 0 %
17:00:00 clear sky 32.390 32.390 32.390 42 2.67 m/h 0 %
20:00:00 clear sky 28.070 28.070 28.070 52 2.17 m/h 0 %
23:00:00 clear sky 26.770 26.770 26.770 56 1.86 m/h 0 %
27-Sep-2022 (Tue)
02:00:00 clear sky 25.730 25.730 25.730 61 2.05 m/h 0 %
05:00:00 clear sky 24.630 24.630 24.630 71 2.23 m/h 0 %
08:00:00 clear sky 27.830 27.830 27.830 62 2.13 m/h 0 %
11:00:00 clear sky 33.610 33.610 33.610 41 1.51 m/h 0 %
14:00:00 clear sky 35.770 35.770 35.770 32 1.53 m/h 0 %
17:00:00 clear sky 34.540 34.540 34.540 34 2.81 m/h 0 %
20:00:00 clear sky 29.320 29.320 29.320 50 3.45 m/h 0 %
23:00:00 clear sky 27.540 27.540 27.540 57 3.24 m/h 0 %
28-Sep-2022 (Wed)
02:00:00 clear sky 26.480 26.480 26.480 63 3.14 m/h 0 %
05:00:00 clear sky 25.250 25.250 25.250 69 2.65 m/h 0 %
08:00:00 clear sky 28.170 28.170 28.170 56 2.75 m/h 0 %
11:00:00 clear sky 34.130 34.130 34.130 34 2.77 m/h 0 %
14:00:00 clear sky 36.780 36.780 36.780 26 1.78 m/h 0 %
17:00:00 clear sky 35.480 35.480 35.480 28 2.36 m/h 0 %
20:00:00 clear sky 29.450 29.450 29.450 48 3.52 m/h 0 %
23:00:00 clear sky 27.770 27.770 27.770 59 3.86 m/h 0 %
29-Sep-2022 (Thu)
02:00:00 clear sky 26.460 26.460 26.460 66 3.11 m/h 0 %
05:00:00 clear sky 25.300 25.300 25.300 65 2.46 m/h 0 %
08:00:00 clear sky 28.940 28.940 28.940 44 1.68 m/h 0 %
11:00:00 clear sky 35.380 35.380 35.380 24 1.27 m/h 0 %
14:00:00 clear sky 37.760 37.760 37.760 20 0.54 m/h 0 %
17:00:00 clear sky 35.790 35.790 35.790 25 2.21 m/h 0 %
20:00:00 few clouds 30.080 30.080 30.080 41 3.32 m/h 0 %
23:00:00 clear sky 27.990 27.990 27.990 53 2.83 m/h 0 %
30-Sep-2022 (Fri)
02:00:00 clear sky 26.670 26.670 26.670 53 1.89 m/h 0 %
05:00:00 clear sky 25.830 25.830 25.830 49 0.61 m/h 0 %
08:00:00 clear sky 29.330 29.330 29.330 42 1.05 m/h 0 %
11:00:00 clear sky 35.560 35.560 35.560 26 0.79 m/h 0 %
14:00:00 clear sky 37.830 37.830 37.830 20 0.34 m/h 0 %
17:00:00 clear sky 35.940 35.940 35.940 24 1.57 m/h 0 %
20:00:00 clear sky 29.990 29.990 29.990 38 3.39 m/h 0 %
23:00:00 clear sky 28.090 28.090 28.090 49 3.24 m/h 0 %
01-Oct-2022 (Sat)
02:00:00 clear sky 26.480 26.480 26.480 41 2.27 m/h 0 %
05:00:00 clear sky 25.960 25.960 25.960 37 1.35 m/h 0 %
08:00:00 clear sky 29.470 29.470 29.470 34 1.81 m/h 0 %

Famous Cities (61)